Time;durP1;ratioP1;P1;durP2;ratioP2;P2;SDS_P1;SDS_P2;PMS_P1;PMS_P2;Temp;Humidity;BMP_temperature;BMP_pressure;BME280_temperature;BME280_humidity;BME280_pressure;Samples;Min_cycle;Max_cycle;Signal;HPM_P1;HPM_P2
2022/03/17 00:01:33;;;;;;;30.13;15.97;;;;;;;;;;5098004;28;20456;-71
2022/03/17 00:04:01;;;;;;;26.23;15.00;;;;;;;;;;5096396;28;20460;-72
2022/03/17 00:06:31;;;;;;;31.87;16.60;;;;;;;;;;5077838;28;20463;-72
2022/03/17 00:09:00;;;;;;;25.33;16.27;;;;;;;;;;5079474;28;20478;-71
2022/03/17 00:11:30;;;;;;;39.27;17.00;;;;;;;;;;5081360;28;20982;-72
2022/03/17 00:14:05;;;;;;;33.70;17.50;;;;;;;;;;5083781;28;20489;-72
2022/03/17 00:16:34;;;;;;;31.30;16.50;;;;;;;;;;5087843;28;20456;-71
2022/03/17 00:19:07;;;;;;;27.63;16.20;;;;;;;;;;5082867;28;20457;-71
2022/03/17 00:21:39;;;;;;;31.13;16.90;;;;;;;;;;5091864;28;20467;-71
2022/03/17 00:24:10;;;;;;;32.23;16.30;;;;;;;;;;5077255;28;20820;-71
2022/03/17 00:26:38;;;;;;;30.63;17.60;;;;;;;;;;5094027;28;20465;-72
2022/03/17 00:29:08;;;;;;;33.60;16.67;;;;;;;;;;5088094;28;20453;-72
2022/03/17 00:31:37;;;;;;;29.50;17.67;;;;;;;;;;5076423;28;20508;-72
2022/03/17 00:34:07;;;;;;;35.73;19.10;;;;;;;;;;5091367;28;20484;-73
2022/03/17 00:36:35;;;;;;;30.00;16.37;;;;;;;;;;5082385;28;20682;-73
2022/03/17 00:39:05;;;;;;;32.30;18.47;;;;;;;;;;5092836;28;20540;-72
2022/03/17 00:41:33;;;;;;;31.97;19.17;;;;;;;;;;5085469;28;20463;-72
2022/03/17 00:44:02;;;;;;;31.00;16.47;;;;;;;;;;5089996;28;20552;-72
2022/03/17 00:46:31;;;;;;;32.17;19.30;;;;;;;;;;5093600;28;20453;-73
2022/03/17 00:49:02;;;;;;;30.17;18.70;;;;;;;;;;5076847;28;20449;-72
2022/03/17 00:51:30;;;;;;;34.13;18.83;;;;;;;;;;5082274;28;20761;-72
2022/03/17 00:53:58;;;;;;;32.53;17.27;;;;;;;;;;5085036;28;20495;-72
2022/03/17 00:56:26;;;;;;;35.43;18.87;;;;;;;;;;5080971;28;20464;-71
2022/03/17 00:58:57;;;;;;;34.23;19.40;;;;;;;;;;5076022;28;20461;-71
2022/03/17 01:01:25;;;;;;;27.67;16.40;;;;;;;;;;5079427;28;20559;-72
2022/03/17 01:03:54;;;;;;;29.63;17.10;;;;;;;;;;5083963;28;20453;-72
2022/03/17 01:06:25;;;;;;;31.17;16.20;;;;;;;;;;5075491;28;20467;-73
2022/03/17 01:08:55;;;;;;;38.17;19.70;;;;;;;;;;5076130;28;20488;-72
2022/03/17 01:11:23;;;;;;;36.37;19.27;;;;;;;;;;5092713;28;20938;-72
2022/03/17 01:13:51;;;;;;;32.20;18.70;;;;;;;;;;5081988;28;20553;-72
2022/03/17 01:16:19;;;;;;;29.77;18.97;;;;;;;;;;5087180;28;20492;-72
2022/03/17 01:18:46;;;;;;;36.63;17.40;;;;;;;;;;5076903;28;20543;-72
2022/03/17 01:21:19;;;;;;;34.70;19.53;;;;;;;;;;5095860;28;20464;-72
2022/03/17 01:23:47;;;;;;;33.90;19.47;;;;;;;;;;5094172;28;20456;-72
2022/03/17 01:26:14;;;;;;;37.53;21.43;;;;;;;;;;5086640;28;20539;-72
2022/03/17 01:28:42;;;;;;;36.33;21.10;;;;;;;;;;5092894;28;20556;-72
2022/03/17 01:31:11;;;;;;;35.90;21.70;;;;;;;;;;5079014;28;20786;-72
2022/03/17 01:33:39;;;;;;;36.53;20.93;;;;;;;;;;5091689;28;20769;-70
2022/03/17 01:36:10;;;;;;;35.83;21.03;;;;;;;;;;5085302;28;20463;-72
2022/03/17 01:38:39;;;;;;;40.90;20.53;;;;;;;;;;5081570;28;20452;-72
2022/03/17 01:41:07;;;;;;;31.40;19.57;;;;;;;;;;5076030;28;20969;-72
2022/03/17 01:43:35;;;;;;;33.33;21.43;;;;;;;;;;5080100;28;20536;-73
2022/03/17 01:46:03;;;;;;;38.30;20.67;;;;;;;;;;5086880;28;20482;-72
2022/03/17 01:48:30;;;;;;;33.50;18.90;;;;;;;;;;5094083;28;20462;-72
2022/03/17 01:50:58;;;;;;;38.23;20.73;;;;;;;;;;5078672;28;20463;-72
2022/03/17 01:53:26;;;;;;;36.67;19.07;;;;;;;;;;5095695;28;20464;-72
2022/03/17 01:55:57;;;;;;;37.30;21.63;;;;;;;;;;5092738;28;20475;-72
2022/03/17 01:58:25;;;;;;;33.03;19.33;;;;;;;;;;5095645;28;20871;-73
2022/03/17 02:00:54;;;;;;;36.70;17.90;;;;;;;;;;5083380;28;20471;-72
2022/03/17 02:03:21;;;;;;;34.30;21.90;;;;;;;;;;5080077;28;20469;-72
2022/03/17 02:05:50;;;;;;;42.83;21.13;;;;;;;;;;5093956;28;20459;-72
2022/03/17 02:08:20;;;;;;;41.40;22.47;;;;;;;;;;5095669;28;20467;-72
2022/03/17 02:13:35;;;;;;;33.53;20.00;;;;;;;;;;5074950;28;20462;-72
2022/03/17 02:16:03;;;;;;;47.07;24.27;;;;;;;;;;5075362;28;20456;-72
2022/03/17 02:18:32;;;;;;;38.13;21.67;;;;;;;;;;5090062;28;20762;-72
2022/03/17 02:21:00;;;;;;;43.13;24.10;;;;;;;;;;5078032;28;20557;-72
2022/03/17 02:26:15;;;;;;;46.23;25.17;;;;;;;;;;5080384;28;20751;-72
2022/03/17 02:28:42;;;;;;;37.93;21.60;;;;;;;;;;5089549;28;20475;-72
2022/03/17 02:31:11;;;;;;;40.63;23.87;;;;;;;;;;5090148;28;20856;-72
2022/03/17 02:33:41;;;;;;;47.60;26.17;;;;;;;;;;5079268;28;20551;-72
2022/03/17 02:36:09;;;;;;;33.40;21.57;;;;;;;;;;5079321;28;20474;-72
2022/03/17 02:38:46;;;;;;;39.60;23.50;;;;;;;;;;5096292;28;20455;-72
2022/03/17 02:41:21;;;;;;;33.63;18.10;;;;;;;;;;5079202;28;20480;-72
2022/03/17 02:43:51;;;;;;;41.27;22.93;;;;;;;;;;5085092;28;20530;-72
2022/03/17 02:46:21;;;;;;;44.23;24.67;;;;;;;;;;5079789;28;20464;-72
2022/03/17 02:48:49;;;;;;;46.37;25.13;;;;;;;;;;5093904;28;20864;-72
2022/03/17 02:51:16;;;;;;;38.50;20.73;;;;;;;;;;5079296;28;20519;-71
2022/03/17 02:53:46;;;;;;;40.63;23.40;;;;;;;;;;5087798;28;20512;-72
2022/03/17 02:56:13;;;;;;;28.33;16.23;;;;;;;;;;5089883;28;20974;-72
2022/03/17 02:58:41;;;;;;;31.10;17.20;;;;;;;;;;5096120;28;20510;-72
2022/03/17 03:01:12;;;;;;;37.53;20.53;;;;;;;;;;5092965;28;20493;-72
2022/03/17 03:03:40;;;;;;;40.30;21.50;;;;;;;;;;5080528;28;20471;-72
2022/03/17 03:06:09;;;;;;;34.50;16.37;;;;;;;;;;5078688;28;20456;-72
2022/03/17 03:08:38;;;;;;;41.37;22.80;;;;;;;;;;5078961;28;20581;-72
2022/03/17 03:11:07;;;;;;;34.20;20.83;;;;;;;;;;5077944;28;20452;-72
2022/03/17 03:13:36;;;;;;;33.77;21.53;;;;;;;;;;5077906;28;20877;-72
2022/03/17 03:16:04;;;;;;;40.27;23.40;;;;;;;;;;5077734;28;20892;-72
2022/03/17 03:18:32;;;;;;;45.70;23.70;;;;;;;;;;5086657;28;20504;-72
2022/03/17 03:21:00;;;;;;;42.33;24.30;;;;;;;;;;5079336;28;20499;-71
2022/03/17 03:23:27;;;;;;;40.13;23.10;;;;;;;;;;5090603;28;20773;-72
2022/03/17 03:25:55;;;;;;;30.57;15.57;;;;;;;;;;5096894;28;20599;-72
2022/03/17 03:28:25;;;;;;;41.33;22.50;;;;;;;;;;5098135;28;20464;-72
2022/03/17 03:30:54;;;;;;;44.53;21.37;;;;;;;;;;5086145;28;20460;-72
2022/03/17 03:33:24;;;;;;;43.00;24.30;;;;;;;;;;5080774;28;20479;-72
2022/03/17 03:38:41;;;;;;;24.13;14.90;;;;;;;;;;5086339;28;20500;-71
2022/03/17 03:41:08;;;;;;;37.20;24.63;;;;;;;;;;5097524;28;20462;-72
2022/03/17 03:43:38;;;;;;;34.40;21.20;;;;;;;;;;5091489;28;20472;-72
2022/03/17 03:46:05;;;;;;;42.83;25.60;;;;;;;;;;5097338;28;20801;-72
2022/03/17 03:48:33;;;;;;;39.63;23.37;;;;;;;;;;5096614;28;20558;-73
2022/03/17 03:51:01;;;;;;;22.23;11.60;;;;;;;;;;5080163;28;20551;-72
2022/03/17 03:54:12;;;;;;;44.53;23.73;;;;;;;;;;5090015;28;20471;-72
2022/03/17 03:56:17;;;;;;;44.03;24.70;;;;;;;;;;5096139;28;20506;-72
2022/03/17 03:58:48;;;;;;;43.93;23.37;;;;;;;;;;5088072;28;21191;-72
2022/03/17 04:01:18;;;;;;;38.10;22.80;;;;;;;;;;5096957;28;20455;-72
2022/03/17 04:03:46;;;;;;;36.93;22.93;;;;;;;;;;5093127;28;20460;-72
2022/03/17 04:06:16;;;;;;;38.93;21.97;;;;;;;;;;5085160;28;20460;-72
2022/03/17 04:08:44;;;;;;;49.83;25.07;;;;;;;;;;5079218;28;20744;-72
2022/03/17 04:11:12;;;;;;;34.43;17.30;;;;;;;;;;5082929;28;20930;-72
2022/03/17 04:13:40;;;;;;;42.03;24.70;;;;;;;;;;5078998;28;20515;-72
2022/03/17 04:16:09;;;;;;;33.07;20.70;;;;;;;;;;5096879;28;20529;-72
2022/03/17 04:18:37;;;;;;;40.07;22.63;;;;;;;;;;5079539;28;20809;-72
2022/03/17 04:21:05;;;;;;;43.30;23.00;;;;;;;;;;5096148;27;20893;-72
2022/03/17 04:23:35;;;;;;;41.93;22.00;;;;;;;;;;5109763;27;20463;-72
2022/03/17 04:26:02;;;;;;;40.27;22.63;;;;;;;;;;5079267;28;20517;-72
2022/03/17 04:28:32;;;;;;;31.50;20.27;;;;;;;;;;5097040;28;20555;-72
2022/03/17 04:30:59;;;;;;;33.83;19.40;;;;;;;;;;5097294;28;20463;-72
2022/03/17 04:33:29;;;;;;;44.47;26.43;;;;;;;;;;5096603;28;20836;-72
2022/03/17 04:35:56;;;;;;;49.13;25.63;;;;;;;;;;5097236;28;20833;-72
2022/03/17 04:38:25;;;;;;;36.80;20.67;;;;;;;;;;5096885;28;20951;-72
2022/03/17 04:40:53;;;;;;;43.57;25.37;;;;;;;;;;5096495;28;20475;-72
2022/03/17 04:43:21;;;;;;;38.80;24.83;;;;;;;;;;5096695;28;20839;-72
2022/03/17 04:45:49;;;;;;;36.57;21.80;;;;;;;;;;5096300;28;20914;-72
2022/03/17 04:48:16;;;;;;;30.63;17.93;;;;;;;;;;5091075;28;20510;-72
2022/03/17 04:50:46;;;;;;;44.30;25.57;;;;;;;;;;5095675;28;20507;-72
2022/03/17 04:53:29;;;;;;;46.63;25.37;;;;;;;;;;5075951;28;20954;-73
2022/03/17 04:56:00;;;;;;;30.87;16.33;;;;;;;;;;5084119;28;20533;-73
2022/03/17 04:58:31;;;;;;;34.97;22.50;;;;;;;;;;5078926;28;20448;-73
2022/03/17 05:00:59;;;;;;;39.50;24.30;;;;;;;;;;5082929;28;20954;-72
2022/03/17 05:03:28;;;;;;;37.17;24.07;;;;;;;;;;5085740;28;20456;-72
2022/03/17 05:05:57;;;;;;;30.57;16.93;;;;;;;;;;5094977;28;20466;-72
2022/03/17 05:08:25;;;;;;;38.80;22.53;;;;;;;;;;5092896;28;20471;-72
2022/03/17 05:10:53;;;;;;;37.90;22.30;;;;;;;;;;5078660;28;20511;-72
2022/03/17 05:13:22;;;;;;;39.60;22.57;;;;;;;;;;5079695;28;20449;-72
2022/03/17 05:15:51;;;;;;;45.57;23.90;;;;;;;;;;5074936;28;20550;-72
2022/03/17 05:18:23;;;;;;;33.40;19.17;;;;;;;;;;5091105;28;20555;-72
2022/03/17 05:20:53;;;;;;;35.07;20.67;;;;;;;;;;5094954;28;20474;-72
2022/03/17 05:23:26;;;;;;;36.40;20.83;;;;;;;;;;5090842;28;20440;-72
2022/03/17 05:25:57;;;;;;;35.50;22.73;;;;;;;;;;5094912;28;20887;-72
2022/03/17 05:28:30;;;;;;;40.67;24.20;;;;;;;;;;5094967;28;20497;-72
2022/03/17 05:31:00;;;;;;;37.00;20.70;;;;;;;;;;5094004;28;21007;-72
2022/03/17 05:33:34;;;;;;;37.87;20.97;;;;;;;;;;5094938;28;20459;-72
2022/03/17 05:36:05;;;;;;;42.10;25.20;;;;;;;;;;5094046;28;20497;-72
2022/03/17 05:38:34;;;;;;;42.90;23.97;;;;;;;;;;5094810;28;20467;-71
2022/03/17 05:41:03;;;;;;;43.87;24.80;;;;;;;;;;5094488;28;20497;-72
2022/03/17 05:43:37;;;;;;;39.27;23.40;;;;;;;;;;5094285;28;20448;-71
2022/03/17 05:46:04;;;;;;;41.57;22.60;;;;;;;;;;5075168;28;20516;-72
2022/03/17 05:48:32;;;;;;;36.93;22.10;;;;;;;;;;5074420;28;20455;-74
2022/03/17 05:51:00;;;;;;;38.33;22.03;;;;;;;;;;5073992;28;20560;-72
2022/03/17 05:53:28;;;;;;;42.10;24.63;;;;;;;;;;5074657;28;20607;-72
2022/03/17 05:55:59;;;;;;;40.53;24.03;;;;;;;;;;5074655;28;20523;-72
2022/03/17 05:58:27;;;;;;;40.87;24.53;;;;;;;;;;5074487;28;20476;-72
2022/03/17 06:00:55;;;;;;;32.67;19.17;;;;;;;;;;5074540;28;20484;-72
2022/03/17 06:03:23;;;;;;;44.00;25.40;;;;;;;;;;5074653;28;20592;-72
2022/03/17 06:05:51;;;;;;;40.80;26.37;;;;;;;;;;5074590;28;20452;-72
2022/03/17 06:08:23;;;;;;;49.60;23.87;;;;;;;;;;5076328;28;20449;-72
2022/03/17 06:10:51;;;;;;;39.43;23.03;;;;;;;;;;5091994;28;20905;-72
2022/03/17 06:13:23;;;;;;;34.00;19.30;;;;;;;;;;5078317;28;20463;-72
2022/03/17 06:15:51;;;;;;;40.10;23.60;;;;;;;;;;5087592;28;20476;-72
2022/03/17 06:18:20;;;;;;;39.37;22.50;;;;;;;;;;5092776;28;20458;-72
2022/03/17 06:20:48;;;;;;;44.90;21.60;;;;;;;;;;5092917;28;20466;-72
2022/03/17 06:23:15;;;;;;;42.93;25.57;;;;;;;;;;5073282;28;20514;-72
2022/03/17 06:25:44;;;;;;;37.93;20.20;;;;;;;;;;5073161;28;20520;-72
2022/03/17 06:28:13;;;;;;;44.60;25.67;;;;;;;;;;5087175;28;20464;-73
2022/03/17 06:30:43;;;;;;;46.30;24.30;;;;;;;;;;5093680;28;20456;-72
2022/03/17 06:33:16;;;;;;;38.77;23.97;;;;;;;;;;5093486;28;20555;-72
2022/03/17 06:35:47;;;;;;;47.63;27.57;;;;;;;;;;5075381;28;20579;-72
2022/03/17 06:38:21;;;;;;;29.50;20.10;;;;;;;;;;5077691;28;20559;-71
2022/03/17 06:40:51;;;;;;;41.07;24.57;;;;;;;;;;5090667;28;20855;-72
2022/03/17 06:43:20;;;;;;;44.53;23.13;;;;;;;;;;5092346;28;20526;-72
2022/03/17 06:45:52;;;;;;;48.57;25.53;;;;;;;;;;5086711;28;20448;-72
2022/03/17 06:48:20;;;;;;;41.40;26.27;;;;;;;;;;5072014;28;20507;-72
2022/03/17 06:50:48;;;;;;;38.63;23.90;;;;;;;;;;5071181;28;20864;-71
2022/03/17 06:53:17;;;;;;;42.60;25.80;;;;;;;;;;5070061;28;20534;-73
2022/03/17 06:55:45;;;;;;;47.33;27.60;;;;;;;;;;5071112;28;20642;-71
2022/03/17 06:58:19;;;;;;;40.47;23.47;;;;;;;;;;5072276;28;20464;-71
2022/03/17 07:00:48;;;;;;;43.00;25.47;;;;;;;;;;5071232;28;20506;-74
2022/03/17 07:03:17;;;;;;;46.33;26.60;;;;;;;;;;5076639;28;20469;-72
2022/03/17 07:05:51;;;;;;;40.23;23.73;;;;;;;;;;5093690;28;20545;-72
2022/03/17 07:08:19;;;;;;;39.30;23.20;;;;;;;;;;5082768;28;20520;-72
2022/03/17 07:10:54;;;;;;;44.00;25.80;;;;;;;;;;5080030;28;21054;-72
2022/03/17 07:13:24;;;;;;;41.80;24.00;;;;;;;;;;5095816;28;20471;-72
2022/03/17 07:15:52;;;;;;;38.67;23.17;;;;;;;;;;5094405;28;20485;-71
2022/03/17 07:18:23;;;;;;;32.23;20.00;;;;;;;;;;5095054;28;20455;-72
2022/03/17 07:20:53;;;;;;;36.33;24.67;;;;;;;;;;5094686;28;20566;-71
2022/03/17 07:23:31;;;;;;;36.70;21.67;;;;;;;;;;5096100;28;20455;-73
2022/03/17 07:26:17;;;;;;;44.20;27.47;;;;;;;;;;5074459;28;20821;-73
2022/03/17 07:28:45;;;;;;;32.00;16.77;;;;;;;;;;5075203;28;20452;-73
2022/03/17 07:31:16;;;;;;;39.33;23.73;;;;;;;;;;5074486;28;20538;-73
2022/03/17 07:33:53;;;;;;;45.60;24.70;;;;;;;;;;5090638;28;20554;-73
2022/03/17 07:36:21;;;;;;;41.07;25.67;;;;;;;;;;5077514;28;20509;-73
2022/03/17 07:38:51;;;;;;;38.30;22.80;;;;;;;;;;5094159;28;20463;-73
2022/03/17 07:41:20;;;;;;;43.57;27.60;;;;;;;;;;5096311;28;20444;-72
2022/03/17 07:43:48;;;;;;;43.93;26.93;;;;;;;;;;5095653;28;20448;-73
2022/03/17 07:46:16;;;;;;;38.73;24.60;;;;;;;;;;5096139;28;20463;-72
2022/03/17 07:48:54;;;;;;;39.17;23.93;;;;;;;;;;5081576;28;20861;-72
2022/03/17 07:51:27;;;;;;;43.07;26.70;;;;;;;;;;5075003;28;20467;-72
2022/03/17 07:53:55;;;;;;;43.87;27.73;;;;;;;;;;5074903;28;20444;-73
2022/03/17 07:56:23;;;;;;;31.40;18.10;;;;;;;;;;5094086;28;20827;-72
2022/03/17 07:58:51;;;;;;;41.10;25.20;;;;;;;;;;5096614;28;20464;-72
2022/03/17 08:01:24;;;;;;;43.03;24.60;;;;;;;;;;5094805;28;20883;-72
2022/03/17 08:03:54;;;;;;;54.63;28.27;;;;;;;;;;5094880;28;20477;-72
2022/03/17 08:06:24;;;;;;;32.07;20.93;;;;;;;;;;5095922;28;20489;-72
2022/03/17 08:08:55;;;;;;;35.80;22.23;;;;;;;;;;5096042;28;20453;-71
2022/03/17 08:11:23;;;;;;;44.10;26.60;;;;;;;;;;5096300;28;20458;-72
2022/03/17 08:13:53;;;;;;;41.03;24.63;;;;;;;;;;5087856;28;21071;-72
2022/03/17 08:16:23;;;;;;;41.53;25.70;;;;;;;;;;5085816;28;22169;-71
2022/03/17 08:18:54;;;;;;;37.37;23.87;;;;;;;;;;5087360;28;20536;-71
2022/03/17 08:21:27;;;;;;;41.87;26.67;;;;;;;;;;5084064;28;20468;-70
2022/03/17 08:24:00;;;;;;;43.00;26.07;;;;;;;;;;5076641;28;20476;-72
2022/03/17 08:26:28;;;;;;;39.87;24.93;;;;;;;;;;5094520;28;20986;-71
2022/03/17 08:28:56;;;;;;;42.87;26.17;;;;;;;;;;5095597;28;20564;-71
2022/03/17 08:31:26;;;;;;;44.33;27.80;;;;;;;;;;5094060;28;20455;-72
2022/03/17 08:34:02;;;;;;;43.90;27.53;;;;;;;;;;5089291;28;20448;-72
2022/03/17 08:36:30;;;;;;;44.47;26.17;;;;;;;;;;5094100;28;20521;-71
2022/03/17 08:39:01;;;;;;;43.73;25.60;;;;;;;;;;5094847;28;20551;-72
2022/03/17 08:41:29;;;;;;;43.90;24.50;;;;;;;;;;5078815;28;20458;-72
2022/03/17 08:43:57;;;;;;;44.17;26.43;;;;;;;;;;5074338;28;20476;-71
2022/03/17 08:49:26;;;;;;;50.93;28.10;;;;;;;;;;5068914;28;20576;-70
2022/03/17 08:51:56;;;;;;;42.97;27.83;;;;;;;;;;5074058;28;20518;-72
2022/03/17 08:54:29;;;;;;;47.67;23.50;;;;;;;;;;5074047;28;20471;-72
2022/03/17 08:56:59;;;;;;;35.93;24.03;;;;;;;;;;5081696;28;20482;-72
2022/03/17 08:59:33;;;;;;;42.20;26.10;;;;;;;;;;5090752;28;20818;-72
2022/03/17 09:02:06;;;;;;;39.70;24.77;;;;;;;;;;5085877;28;20467;-72
2022/03/17 09:04:40;;;;;;;44.97;24.73;;;;;;;;;;5074628;28;20548;-71
2022/03/17 09:07:11;;;;;;;39.43;26.10;;;;;;;;;;5075872;28;20516;-72
2022/03/17 09:09:50;;;;;;;43.57;26.70;;;;;;;;;;5079154;28;20772;-71
2022/03/17 09:12:38;;;;;;;43.17;27.30;;;;;;;;;;5096489;28;20542;-70
2022/03/17 09:15:16;;;;;;;47.43;25.80;;;;;;;;;;5087873;28;20452;-71
2022/03/17 09:17:45;;;;;;;40.50;26.80;;;;;;;;;;5081657;28;20530;-71
2022/03/17 09:20:20;;;;;;;43.57;27.00;;;;;;;;;;5080919;28;20780;-71
2022/03/17 09:22:49;;;;;;;41.57;27.20;;;;;;;;;;5085932;28;20479;-71
2022/03/17 09:25:28;;;;;;;42.23;27.13;;;;;;;;;;5087335;28;20555;-71
2022/03/17 09:27:58;;;;;;;43.97;26.53;;;;;;;;;;5087819;28;20470;-70
2022/03/17 09:30:26;;;;;;;44.57;26.80;;;;;;;;;;5093803;28;20459;-71
2022/03/17 09:33:01;;;;;;;44.13;29.63;;;;;;;;;;5087208;28;20548;-71
2022/03/17 09:35:50;;;;;;;43.37;28.30;;;;;;;;;;5073271;28;20944;-71
2022/03/17 09:38:20;;;;;;;46.87;27.53;;;;;;;;;;5092238;28;20530;-71
2022/03/17 09:40:58;;;;;;;42.73;24.47;;;;;;;;;;5093871;28;20455;-71
2022/03/17 09:43:31;;;;;;;39.63;26.70;;;;;;;;;;5081746;28;20444;-72
2022/03/17 09:46:06;;;;;;;42.10;25.73;;;;;;;;;;5074567;28;20467;-71
2022/03/17 09:48:34;;;;;;;43.67;26.83;;;;;;;;;;5074515;28;20472;-71
2022/03/17 09:51:25;;;;;;;;;;;;;;;;;;;;;
2022/03/17 09:54:06;;;;;;;37.83;24.90;;;;;;;;;;5092154;28;20460;-72
2022/03/17 09:56:41;;;;;;;45.67;27.53;;;;;;;;;;5094385;28;20585;-73
2022/03/17 09:59:12;;;;;;;41.90;26.30;;;;;;;;;;5094517;28;20536;-71
2022/03/17 10:01:49;;;;;;;38.27;26.20;;;;;;;;;;5092882;28;20548;-73
2022/03/17 10:04:18;;;;;;;42.33;27.03;;;;;;;;;;5093646;28;20467;-72
2022/03/17 10:07:02;;;;;;;40.57;27.17;;;;;;;;;;5095684;28;20520;-73
2022/03/17 10:09:57;;;;;;;44.43;26.10;;;;;;;;;;5094327;28;20455;-73
2022/03/17 10:12:26;;;;;;;44.03;27.57;;;;;;;;;;5092975;28;20456;-72
2022/03/17 10:15:06;;;;;;;41.60;26.73;;;;;;;;;;5093577;28;20532;-72
2022/03/17 10:17:38;;;;;;;41.67;25.50;;;;;;;;;;5094281;28;20635;-72
2022/03/17 10:20:22;;;;;;;40.33;25.73;;;;;;;;;;5079216;28;20788;-73
2022/03/17 10:23:01;;;;;;;42.57;25.47;;;;;;;;;;5073616;28;20460;-72
2022/03/17 10:25:40;;;;;;;45.60;26.53;;;;;;;;;;5078128;28;20492;-73
2022/03/17 10:28:20;;;;;;;45.50;28.70;;;;;;;;;;5085759;28;20460;-73
2022/03/17 10:30:49;;;;;;;46.07;27.17;;;;;;;;;;5072782;28;20689;-73
2022/03/17 10:33:22;;;;;;;41.13;25.77;;;;;;;;;;5073416;28;20572;-73
2022/03/17 10:35:51;;;;;;;43.47;29.17;;;;;;;;;;5073263;28;20453;-73
2022/03/17 10:38:25;;;;;;;42.23;27.13;;;;;;;;;;5073888;28;20470;-73
2022/03/17 10:41:04;;;;;;;51.50;29.20;;;;;;;;;;5078449;28;21098;-73
2022/03/17 10:43:33;;;;;;;45.23;28.17;;;;;;;;;;5092766;28;20550;-73
2022/03/17 10:46:09;;;;;;;44.27;28.97;;;;;;;;;;5095471;28;20516;-73
2022/03/17 10:48:51;;;;;;;44.67;29.70;;;;;;;;;;5086409;28;20462;-74
2022/03/17 10:51:31;;;;;;;45.23;27.10;;;;;;;;;;5097107;28;21077;-73
2022/03/17 10:54:21;;;;;;;44.43;28.10;;;;;;;;;;5088414;28;20464;-73
2022/03/17 10:57:02;;;;;;;44.83;28.77;;;;;;;;;;5092383;28;20927;-73
2022/03/17 10:59:43;;;;;;;44.63;26.10;;;;;;;;;;5081729;28;20448;-73
2022/03/17 11:02:13;;;;;;;40.83;26.70;;;;;;;;;;5076204;28;20585;-74
2022/03/17 11:04:44;;;;;;;41.90;26.87;;;;;;;;;;5088130;28;20471;-72
2022/03/17 11:07:14;;;;;;;40.80;24.27;;;;;;;;;;5076021;28;20468;-73
2022/03/17 11:09:52;;;;;;;40.93;24.80;;;;;;;;;;5085165;28;20439;-74
2022/03/17 11:12:34;;;;;;;41.57;26.50;;;;;;;;;;5097162;28;20890;-72
2022/03/17 11:15:08;;;;;;;43.57;29.80;;;;;;;;;;5097296;28;20462;-74
2022/03/17 11:17:56;;;;;;;43.77;26.13;;;;;;;;;;5093082;28;20486;-74
2022/03/17 11:20:27;;;;;;;45.87;28.47;;;;;;;;;;5091284;28;20468;-73
2022/03/17 11:23:15;;;;;;;41.70;27.90;;;;;;;;;;5084145;28;20462;-73
2022/03/17 11:25:46;;;;;;;39.20;26.00;;;;;;;;;;5094668;28;20444;-73
2022/03/17 11:28:20;;;;;;;40.90;24.50;;;;;;;;;;5081889;28;20567;-73
2022/03/17 11:30:50;;;;;;;40.63;26.50;;;;;;;;;;5085760;28;20452;-73
2022/03/17 11:33:35;;;;;;;41.37;26.77;;;;;;;;;;5092129;28;20809;-73
2022/03/17 11:36:23;;;;;;;41.80;26.90;;;;;;;;;;5083271;28;20551;-73
2022/03/17 11:39:14;;;;;;;47.53;30.27;;;;;;;;;;5076003;28;20472;-74
2022/03/17 11:41:45;;;;;;;42.07;28.37;;;;;;;;;;5087609;28;20499;-74
2022/03/17 11:44:14;;;;;;;44.53;27.50;;;;;;;;;;5076593;28;20561;-74
2022/03/17 11:46:45;;;;;;;43.70;28.20;;;;;;;;;;5090191;28;20452;-74
2022/03/17 11:49:32;;;;;;;38.00;25.93;;;;;;;;;;5087775;28;20478;-74
2022/03/17 11:52:14;;;;;;;33.53;22.37;;;;;;;;;;5096954;28;20455;-73
2022/03/17 11:54:51;;;;;;;36.40;23.73;;;;;;;;;;5092498;28;20462;-74
2022/03/17 11:57:25;;;;;;;42.87;26.47;;;;;;;;;;5095776;28;20478;-74
2022/03/17 12:03:17;;;;;;;;;;;;;;;;;;;;;
2022/03/17 12:06:13;;;;;;;39.50;24.40;;;;;;;;;;5088928;28;20899;-73
2022/03/17 12:08:41;;;;;;;37.90;24.50;;;;;;;;;;5096294;28;20741;-73
2022/03/17 12:11:14;;;;;;;26.23;17.00;;;;;;;;;;5076018;28;20457;-73
2022/03/17 12:16:58;;;;;;;24.50;12.43;;;;;;;;;;4999809;28;20473;-72
2022/03/17 12:19:36;;;;;;;12.13;8.57;;;;;;;;;;5084467;28;20525;-72
2022/03/17 12:22:14;;;;;;;16.57;9.83;;;;;;;;;;5075175;28;20509;-72
2022/03/17 12:24:47;;;;;;;18.13;10.40;;;;;;;;;;5084638;28;20463;-72
2022/03/17 12:27:17;;;;;;;10.50;8.17;;;;;;;;;;5089950;28;20877;-72
2022/03/17 12:29:47;;;;;;;19.20;10.93;;;;;;;;;;5075006;28;20460;-73
2022/03/17 12:32:16;;;;;;;28.40;12.20;;;;;;;;;;5086353;28;20455;-73
2022/03/17 12:34:50;;;;;;;37.97;9.07;;;;;;;;;;5074559;28;20473;-72
2022/03/17 12:37:34;;;;;;;12.43;8.30;;;;;;;;;;5074897;28;20943;-71
2022/03/17 12:42:58;;;;;;;12.90;8.30;;;;;;;;;;5087542;28;20502;-73
2022/03/17 12:45:28;;;;;;;14.00;7.83;;;;;;;;;;5092949;28;20451;-73
2022/03/17 12:48:04;;;;;;;14.80;6.30;;;;;;;;;;5095147;28;20463;-73
2022/03/17 12:50:35;;;;;;;20.47;9.40;;;;;;;;;;5093146;28;21018;-73
2022/03/17 12:53:03;;;;;;;12.33;7.00;;;;;;;;;;5092698;28;20930;-73
2022/03/17 12:55:32;;;;;;;10.87;4.90;;;;;;;;;;5094023;28;20748;-72
2022/03/17 12:58:02;;;;;;;13.13;4.47;;;;;;;;;;5092986;28;20507;-71
2022/03/17 13:00:34;;;;;;;13.57;7.10;;;;;;;;;;5094209;28;20444;-71
2022/03/17 13:03:03;;;;;;;9.10;5.90;;;;;;;;;;5092856;28;20440;-72
2022/03/17 13:08:21;;;;;;;13.43;5.10;;;;;;;;;;5078756;28;20493;-71
2022/03/17 13:16:26;;;;;;;8.20;3.90;;;;;;;;;;5058122;28;21128;-72
2022/03/17 13:19:04;;;;;;;15.33;4.73;;;;;;;;;;5075079;28;20580;-72
2022/03/17 13:21:44;;;;;;;7.37;5.00;;;;;;;;;;5083111;28;20505;-72
2022/03/17 13:24:36;;;;;;;;;;;;;;;;;;;;;
2022/03/17 13:27:41;;;;;;;14.47;4.70;;;;;;;;;;5087736;28;20451;-72
2022/03/17 13:33:28;;;;;;;6.10;3.73;;;;;;;;;;5092194;28;20555;-71
2022/03/17 13:35:58;;;;;;;7.57;4.13;;;;;;;;;;5090623;28;20459;-72
2022/03/17 13:38:34;;;;;;;7.50;3.80;;;;;;;;;;5083590;28;20516;-72
2022/03/17 13:41:05;;;;;;;8.67;4.67;;;;;;;;;;5090999;28;21159;-72
2022/03/17 13:43:34;;;;;;;11.90;4.50;;;;;;;;;;5089923;28;20516;-71
2022/03/17 13:46:03;;;;;;;12.77;4.03;;;;;;;;;;5082124;28;20552;-72
2022/03/17 13:48:33;;;;;;;7.60;3.17;;;;;;;;;;5092171;28;20567;-72
2022/03/17 13:51:13;;;;;;;;;;;;;;;;;;;;;
2022/03/17 13:53:57;;;;;;;4.37;2.70;;;;;;;;;;5085737;28;20473;-72
2022/03/17 13:56:41;;;;;;;5.77;2.90;;;;;;;;;;5089283;28;20446;-72
2022/03/17 13:59:18;;;;;;;4.80;2.93;;;;;;;;;;5093809;28;20561;-72
2022/03/17 14:01:52;;;;;;;5.70;1.97;;;;;;;;;;5091826;28;20466;-72
2022/03/17 14:04:34;;;;;;;2.53;1.70;;;;;;;;;;5089089;28;20491;-72
2022/03/17 14:07:05;;;;;;;6.07;1.77;;;;;;;;;;5090816;28;20451;-72
2022/03/17 14:09:36;;;;;;;6.97;2.60;;;;;;;;;;5093747;28;20451;-72
2022/03/17 14:12:06;;;;;;;6.70;2.50;;;;;;;;;;5090753;28;20440;-72
2022/03/17 14:14:36;;;;;;;9.40;2.60;;;;;;;;;;5107885;28;20438;-73
2022/03/17 14:17:09;;;;;;;2.67;1.90;;;;;;;;;;5073491;28;20884;-73
2022/03/17 14:19:39;;;;;;;3.10;1.53;;;;;;;;;;5075743;28;20460;-72
2022/03/17 14:24:54;;;;;;;5.00;1.60;;;;;;;;;;5090636;28;20451;-72
2022/03/17 14:27:32;;;;;;;8.50;1.83;;;;;;;;;;5086743;28;20539;-71
2022/03/17 14:30:00;;;;;;;11.63;1.87;;;;;;;;;;5077230;28;20452;-72
2022/03/17 14:32:32;;;;;;;7.30;2.27;;;;;;;;;;5081311;28;20533;-72
2022/03/17 14:35:03;;;;;;;2.97;1.57;;;;;;;;;;5091485;28;20547;-72
2022/03/17 14:37:37;;;;;;;1.60;1.10;;;;;;;;;;5088710;28;20475;-73
2022/03/17 14:42:54;;;;;;;4.83;1.70;;;;;;;;;;5090044;28;20463;-73
2022/03/17 14:45:26;;;;;;;3.47;1.30;;;;;;;;;;5092713;28;20538;-73
2022/03/17 14:47:55;;;;;;;3.33;1.10;;;;;;;;;;5081428;28;20456;-73
2022/03/17 14:50:24;;;;;;;3.50;1.10;;;;;;;;;;5088785;28;20475;-72
2022/03/17 14:52:59;;;;;;;6.17;1.43;;;;;;;;;;5086096;28;20451;-73
2022/03/17 14:55:58;;;;;;;4.37;1.27;;;;;;;;;;5081603;28;20513;-72
2022/03/17 15:01:17;;;;;;;5.07;1.10;;;;;;;;;;5088025;28;20581;-73
2022/03/17 15:04:05;;;;;;;;;;;;;;;;;;;;;
2022/03/17 15:06:42;;;;;;;6.30;1.50;;;;;;;;;;5095985;28;20474;-73
2022/03/17 15:09:29;;;;;;;6.30;1.87;;;;;;;;;;5077379;28;20582;-72
2022/03/17 15:12:01;;;;;;;4.53;2.50;;;;;;;;;;5085318;28;20915;-72
2022/03/17 15:14:36;;;;;;;5.13;1.73;;;;;;;;;;5088832;28;21118;-72
2022/03/17 15:17:11;;;;;;;5.70;1.60;;;;;;;;;;5094504;28;20895;-73
2022/03/17 15:19:45;;;;;;;6.43;1.57;;;;;;;;;;5092922;28;20917;-72
2022/03/17 15:31:05;;;;;;;10.47;1.47;;;;;;;;;;5088702;28;20480;-71
2022/03/17 15:33:39;;;;;;;3.43;1.47;;;;;;;;;;5092291;28;20492;-72
2022/03/17 15:36:35;;;;;;;2.40;1.10;;;;;;;;;;5077002;28;20464;-75
2022/03/17 15:39:22;;;;;;;1.80;0.93;;;;;;;;;;5080071;28;20543;-72
2022/03/17 15:41:56;;;;;;;7.60;1.20;;;;;;;;;;5076924;28;20453;-71
2022/03/17 15:47:53;;;;;;;6.63;1.67;;;;;;;;;;5011611;28;20443;-70